• Join FlightAware (Why Join?)
  • Login
  • US Flag 
09:57AM EDT


 

Airport Tracker/Info


-or-


 

Live Flight TrackerFlight Track Log ✈ N777NC ✈ 06-Jul-2013 ✈ KATL - KPIT

Flight Track Log - Related Links

Times and Time Zones

All times are in EDT time to prevent confusion due to time zone crossing. See the N777NC flight status page for this flight to view local times or setup timezone preferences in your user account.

Time Position Orientation Groundspeed Altitude Reporting Facility
EDT Latitude Longitude Course Direction KTS MPH feet Rate Location/Type
01:18PM 33.6750 -84.3358 12° North 447 514 3,500  Level Atlanta Center
01:19PM 33.7333 -84.2833 37° Northeast 281 323 5,900 2,460 Climbing Atlanta TRACON
01:20PM 33.8167 -84.3000 351° North 299 344 8,300 2,100 Climbing Atlanta TRACON
01:21PM 34.1126 -84.3125 North  Level FlightAware Approximate
01:22PM 34.2330 -84.2915 12° North  Level FlightAware Approximate
01:22PM 33.9944 -84.3169 355° North 332 382 12,500  Level Atlanta Center
01:23PM 34.3521 -84.2607 12° North  Level FlightAware Approximate
01:23PM 34.0944 -84.3322 353° North 339 390 13,800  Level Atlanta Center
01:24PM 34.4711 -84.2299 12° North  Level FlightAware Approximate
01:24PM 34.2008 -84.3100 10° North 368 423 15,700  Level Atlanta Center
01:25PM 34.3094 -84.2778 14° North 393 452 17,600 1,740 Climbing Atlanta Center
01:26PM 34.4244 -84.2428 14° North 400 460 19,200 1,500 Climbing Atlanta Center
01:27PM 34.5392 -84.2178 10° North 416 479 20,700 1,560 Climbing Atlanta Center
01:28PM 34.6561 -84.1878 12° North 422 486 22,400 1,320 Climbing Atlanta Center
01:29PM 34.7583 -84.1728 North 422 486 23,400 1,020 Climbing Atlanta Center
01:30PM 34.8817 -84.1503 North 428 493 24,500 1,200 Climbing Atlanta Center
01:31PM 35.0047 -84.1225 10° North 438 504 25,800 1,140 Climbing Atlanta Center
01:32PM 35.1300 -84.1022 North 443 510 26,800 900 Climbing Atlanta Center
01:33PM 35.2614 -84.0719 11° North 462 532 27,700 900 Climbing Atlanta Center
01:34PM 35.3908 -84.0389 12° North 468 539 28,700 600 Climbing Atlanta Center
01:35PM 35.5222 -84.0031 13° North 468 539 29,000 120 Climbing Atlanta Center
01:36PM 35.6556 -83.9672 12° North 478 550 29,000  Level Atlanta Center
01:37PM 35.7892 -83.9311 12° North 483 556 29,000  Level Atlanta Center
01:38PM 35.9350 -83.8822 15° North 495 570 29,000  Level Atlanta Center
01:40PM 36.1622 -83.7442 26° Northeast 498 573 29,000  Level Indianapolis Center
01:41PM 36.2861 -83.6678 26° Northeast 496 571 29,000  Level Indianapolis Center
01:42PM 36.4100 -83.5908 27° Northeast 498 573 29,000  Level Indianapolis Center
01:43PM 36.5389 -83.5003 29° Northeast 504 580 29,000  Level Indianapolis Center
01:44PM 36.6619 -83.4192 28° Northeast 499 574 29,000  Level Indianapolis Center
01:45PM 36.7844 -83.3350 29° Northeast 500 575 29,000  Level Indianapolis Center
01:46PM 36.9114 -83.2589 26° Northeast 499 574 29,000  Level Indianapolis Center
01:47PM 37.0417 -83.1872 24° Northeast 504 580 29,000  Level Indianapolis Center
01:49PM 37.1897 -83.0936 27° Northeast 504 580 29,000  Level Indianapolis Center
01:50PM 37.3181 -83.0214 24° Northeast 501 577 29,000  Level Indianapolis Center
01:51PM 37.4442 -82.9458 25° Northeast 498 573 29,000  Level Indianapolis Center
01:52PM 37.5703 -82.8653 27° Northeast 503 579 29,000  Level Indianapolis Center
01:53PM 37.6986 -82.7931 24° Northeast 504 580 29,000  Level Indianapolis Center
01:54PM 37.8233 -82.7136 27° Northeast 500 575 29,000  Level Indianapolis Center
01:55PM 37.9456 -82.6278 29° Northeast 500 575 29,000  Level Indianapolis Center
01:56PM 38.0656 -82.5367 31° Northeast 499 574 29,000 -240 Level Indianapolis Center
01:57PM 38.1958 -82.4414 30° Northeast 504 580 28,600 -780 Descending Indianapolis Center
01:58PM 38.3169 -82.3556 29° Northeast 499 574 27,500 -840 Descending Indianapolis Center
01:59PM 38.4353 -82.2622 32° Northeast 498 573 27,000 -300 Descending Indianapolis Center
02:00PM 38.5575 -82.1767 29° Northeast 499 574 27,000  Level Indianapolis Center
02:01PM 38.6817 -82.0908 28° Northeast 502 578 27,000  Level Indianapolis Center
02:02PM 38.8019 -81.9939 32° Northeast 505 581 27,000 -60 Level Indianapolis Center
02:03PM 38.9153 -81.8867 36° Northeast 501 577 26,900 -600 Descending Indianapolis Center
02:04PM 39.0333 -81.7858 34° Northeast 503 579 25,900 -960 Descending Indianapolis Center
02:05PM 39.1578 -81.7133 24° Northeast 491 565 25,000 -900 Descending Indianapolis Center
02:06PM 39.2811 -81.6364 26° Northeast 492 566 24,100 -1,200 Descending Indianapolis Center
02:07PM 39.3819 -81.5236 41° Northeast 478 550 22,600 -1,800 Descending Indianapolis Center
02:08PM 39.4808 -81.4136 41° Northeast 468 539 20,500 -1,800 Descending Indianapolis Center
02:09PM 39.6017 -81.2925 38° Northeast 458 527 19,000 -780 Descending Indianapolis Center
02:10PM 39.6939 -81.1908 40° Northeast 438 504 19,000 -360 Level Indianapolis Center
02:11PM 39.7844 -81.0903 40° Northeast 430 495 18,300 -1,680 Descending Indianapolis Center
02:12PM 39.8728 -80.9903 41° Northeast 421 484 15,700 -2,640 Descending Indianapolis Center
02:13PM 39.9639 -80.8928 39° Northeast 413 475 13,000 -2,520 Descending Indianapolis Center
02:14PM 40.0408 -80.7897 46° Northeast 396 456 10,600 -1,500 Descending Indianapolis Center
02:15PM 40.1275 -80.6972 39° Northeast 383 441 10,000 -300 Descending Cleveland Center
02:16PM 40.2006 -80.6103 42° Northeast 364 419 10,000 -600 Level Cleveland Center
02:17PM 40.2714 -80.5422 36° Northeast 338 389 8,900 -1,200 Descending Cleveland Center
02:18PM 40.3256 -80.4633 48° Northeast 305 351 7,700 -960 Descending Cleveland Center
02:19PM 40.3692 -80.3814 55° Northeast 278 320 7,000 -720 Descending Cleveland Center